createdAt,value
2019-04-07T00:01:34.412Z,18.20
2019-04-07T00:04:04.329Z,18.17
2019-04-07T00:06:33.902Z,18.35
2019-04-07T00:09:06.162Z,19.67
2019-04-07T00:11:35.724Z,21.60
2019-04-07T00:14:05.633Z,19.37
2019-04-07T00:16:35.174Z,18.25
2019-04-07T00:19:05.415Z,19.90
2019-04-07T00:21:37.407Z,18.55
2019-04-07T00:24:07.021Z,19.57
2019-04-07T00:26:36.499Z,21.07
2019-04-07T00:29:06.070Z,20.08
2019-04-07T00:31:35.494Z,20.05
2019-04-07T00:34:05.298Z,19.42
2019-04-07T00:36:35.083Z,22.48
2019-04-07T00:39:06.893Z,18.45
2019-04-07T00:41:36.450Z,16.87
2019-04-07T00:44:06.211Z,19.10
2019-04-07T00:46:36.455Z,19.62
2019-04-07T00:49:06.757Z,20.40
2019-04-07T00:51:36.223Z,19.55
2019-04-07T00:54:06.167Z,21.20
2019-04-07T00:56:35.846Z,22.45
2019-04-07T00:59:05.382Z,23.67
2019-04-07T01:01:35.044Z,23.10
2019-04-07T01:04:04.566Z,22.30
2019-04-07T01:06:39.672Z,21.10
2019-04-07T01:09:12.361Z,22.37
2019-04-07T01:11:42.399Z,22.65
2019-04-07T01:14:16.041Z,24.02
2019-04-07T01:16:47.140Z,23.67
2019-04-07T01:19:18.913Z,21.75
2019-04-07T01:21:49.978Z,21.35
2019-04-07T01:24:20.985Z,18.00
2019-04-07T01:26:52.553Z,19.92
2019-04-07T01:29:22.639Z,21.33
2019-04-07T01:31:54.768Z,18.73
2019-04-07T01:34:25.082Z,19.62
2019-04-07T01:39:26.024Z,18.83
2019-04-07T01:42:05.105Z,16.42
2019-04-07T01:44:39.687Z,18.15
2019-04-07T01:47:28.922Z,17.67
2019-04-07T01:50:18.975Z,16.62
2019-04-07T01:53:12.549Z,19.50
2019-04-07T01:56:03.381Z,17.00
2019-04-07T01:58:48.226Z,17.77
2019-04-07T02:01:36.370Z,18.42
2019-04-07T02:04:24.537Z,18.55
2019-04-07T02:07:18.322Z,18.17
2019-04-07T02:10:12.140Z,16.32
2019-04-07T02:12:53.364Z,17.30
2019-04-07T02:15:45.834Z,19.45
2019-04-07T02:18:25.597Z,19.62
2019-04-07T02:21:14.241Z,19.12
2019-04-07T02:24:05.872Z,17.07
2019-04-07T02:26:50.327Z,17.85
2019-04-07T02:29:54.426Z,17.57
2019-04-07T02:32:54.504Z,17.80
2019-04-07T02:39:18.326Z,18.82
2019-04-07T02:42:15.203Z,15.88
2019-04-07T02:45:04.150Z,16.02
2019-04-07T02:48:01.246Z,17.02
2019-04-07T02:50:54.949Z,17.17
2019-04-07T02:53:47.485Z,19.17
2019-04-07T02:56:33.739Z,17.23
2019-04-07T02:59:24.751Z,18.90
2019-04-07T03:05:24.615Z,18.85
2019-04-07T03:08:22.620Z,17.15
2019-04-07T03:11:04.186Z,17.05
2019-04-07T03:13:52.634Z,20.00
2019-04-07T03:16:40.613Z,18.65
2019-04-07T03:19:41.335Z,15.93
2019-04-07T03:22:32.821Z,18.95
2019-04-07T03:25:39.820Z,18.55
2019-04-07T03:28:25.865Z,16.65
2019-04-07T03:31:10.171Z,19.52
2019-04-07T03:33:48.102Z,17.00
2019-04-07T03:37:02.842Z,17.12
2019-04-07T03:39:26.537Z,18.27
2019-04-07T03:42:06.259Z,20.65
2019-04-07T03:45:01.429Z,17.87
2019-04-07T03:47:42.512Z,19.02
2019-04-07T03:50:38.660Z,17.05
2019-04-07T03:53:37.307Z,19.30
2019-04-07T03:56:34.734Z,17.65
2019-04-07T03:59:27.656Z,16.00
2019-04-07T04:02:17.569Z,19.60
2019-04-07T04:04:57.567Z,20.55
2019-04-07T04:07:54.709Z,19.35
2019-04-07T04:10:50.178Z,20.60
2019-04-07T04:13:32.804Z,19.45
2019-04-07T04:16:24.921Z,19.52
2019-04-07T04:18:55.707Z,19.30
2019-04-07T04:21:26.000Z,20.92
2019-04-07T04:26:24.384Z,17.85
2019-04-07T04:28:53.597Z,20.27
2019-04-07T04:31:23.044Z,19.57
2019-04-07T04:33:52.341Z,20.57
2019-04-07T04:36:22.176Z,19.00
2019-04-07T04:38:52.513Z,19.23
2019-04-07T04:41:23.176Z,20.30
2019-04-07T04:43:53.509Z,20.23
2019-04-07T04:48:52.740Z,19.92
2019-04-07T04:54:00.371Z,20.88
2019-04-07T04:56:34.917Z,20.72
2019-04-07T04:59:07.338Z,21.10
2019-04-07T05:01:40.014Z,20.92
2019-04-07T05:04:15.174Z,23.05
2019-04-07T05:06:49.124Z,18.95
2019-04-07T05:09:20.042Z,21.23
2019-04-07T05:11:50.586Z,19.60
2019-04-07T05:14:23.246Z,23.35
2019-04-07T05:16:55.969Z,20.43
2019-04-07T05:19:29.193Z,22.42
2019-04-07T05:21:58.411Z,21.60
2019-04-07T05:24:28.236Z,18.20
2019-04-07T05:27:02.207Z,19.45
2019-04-07T05:29:32.459Z,19.73
2019-04-07T05:32:02.008Z,22.17
2019-04-07T05:34:31.442Z,21.70
2019-04-07T05:37:09.968Z,20.62
2019-04-07T05:39:39.495Z,20.90
2019-04-07T05:42:09.194Z,20.48
2019-04-07T05:44:38.611Z,22.15
2019-04-07T05:47:10.898Z,23.23
2019-04-07T05:49:39.204Z,20.62
2019-04-07T05:52:09.623Z,20.95
2019-04-07T05:54:41.288Z,22.87
2019-04-07T05:57:34.868Z,21.80
2019-04-07T06:00:06.767Z,21.48
2019-04-07T06:02:37.492Z,22.77
2019-04-07T06:05:07.109Z,22.50
2019-04-07T06:07:39.671Z,21.27
2019-04-07T06:10:10.000Z,21.65
2019-04-07T06:12:41.969Z,20.52
2019-04-07T06:15:10.860Z,20.95
2019-04-07T06:17:40.316Z,21.12
2019-04-07T06:20:14.218Z,22.37
2019-04-07T06:22:41.508Z,22.40
2019-04-07T06:25:13.066Z,19.62
2019-04-07T06:27:46.532Z,21.40
2019-04-07T06:30:17.600Z,22.60
2019-04-07T06:32:47.266Z,22.45
2019-04-07T06:35:16.982Z,22.73
2019-04-07T06:37:46.577Z,21.80
2019-04-07T06:40:20.372Z,23.85
2019-04-07T06:42:48.893Z,19.80
2019-04-07T06:47:53.644Z,22.80
2019-04-07T06:50:54.805Z,22.73
2019-04-07T06:53:38.189Z,22.75
2019-04-07T06:56:26.886Z,23.50
2019-04-07T06:59:15.628Z,22.60
2019-04-07T07:02:14.246Z,21.62
2019-04-07T07:05:01.585Z,22.90
2019-04-07T07:07:50.968Z,21.42
2019-04-07T07:10:39.953Z,21.43
2019-04-07T07:13:28.652Z,22.42
2019-04-07T07:16:21.957Z,23.00
2019-04-07T07:19:06.385Z,24.50
2019-04-07T07:21:50.155Z,22.58
2019-04-07T07:24:24.980Z,21.37
2019-04-07T07:26:50.517Z,23.18
2019-04-07T07:29:19.874Z,23.92
2019-04-07T07:31:51.826Z,22.62
2019-04-07T07:34:21.115Z,22.95
2019-04-07T07:39:23.153Z,22.25
2019-04-07T07:41:53.045Z,22.13
2019-04-07T07:44:24.545Z,20.55
2019-04-07T07:46:55.376Z,21.52
2019-04-07T07:52:25.486Z,19.50
2019-04-07T07:54:59.776Z,22.70
2019-04-07T07:57:27.856Z,26.17
2019-04-07T07:59:57.376Z,22.98
2019-04-07T08:02:29.033Z,23.60
2019-04-07T08:05:00.644Z,21.10
2019-04-07T08:07:30.156Z,21.55
2019-04-07T08:10:00.595Z,21.62
2019-04-07T08:12:33.793Z,22.52
2019-04-07T08:15:03.082Z,19.60
2019-04-07T08:17:33.936Z,21.52
2019-04-07T08:20:04.535Z,22.50
2019-04-07T08:22:41.313Z,19.85
2019-04-07T08:25:06.613Z,19.77
2019-04-07T08:27:36.533Z,19.90
2019-04-07T08:30:13.328Z,19.40
2019-04-07T08:32:43.179Z,20.75
2019-04-07T08:35:24.339Z,18.17
2019-04-07T08:37:59.753Z,19.67
2019-04-07T08:40:41.396Z,16.40
2019-04-07T08:43:21.369Z,18.52
2019-04-07T08:46:02.234Z,18.00
2019-04-07T08:48:32.206Z,19.98
2019-04-07T08:51:06.929Z,18.85
2019-04-07T08:53:38.941Z,19.27
2019-04-07T08:56:09.897Z,20.82
2019-04-07T08:58:40.182Z,18.57
2019-04-07T09:01:11.241Z,16.30
2019-04-07T09:03:44.483Z,16.82
2019-04-07T09:06:18.513Z,16.32
2019-04-07T09:08:49.784Z,16.25
2019-04-07T09:11:23.522Z,17.73
2019-04-07T09:13:56.020Z,15.03
2019-04-07T09:16:52.691Z,18.52
2019-04-07T09:19:54.513Z,16.17
2019-04-07T09:23:34.361Z,17.15
2019-04-07T09:27:05.513Z,16.02
2019-04-07T09:29:48.825Z,14.83
2019-04-07T09:33:01.343Z,14.30
2019-04-07T09:35:51.021Z,13.98
2019-04-07T09:38:30.337Z,15.63
2019-04-07T09:41:24.867Z,15.18
2019-04-07T09:44:09.155Z,16.37
2019-04-07T09:47:07.137Z,14.13
2019-04-07T09:50:12.393Z,14.93
2019-04-07T09:53:00.886Z,13.08
2019-04-07T09:56:08.820Z,14.78
2019-04-07T09:59:09.028Z,13.85
2019-04-07T10:01:59.462Z,14.58
2019-04-07T10:04:58.648Z,12.75
2019-04-07T10:08:13.245Z,14.83
2019-04-07T10:11:05.354Z,14.75
2019-04-07T10:27:38.359Z,13.22
2019-04-07T10:30:32.191Z,13.38
2019-04-07T10:33:32.395Z,14.58
2019-04-07T10:36:17.722Z,13.83
2019-04-07T10:39:14.247Z,13.13
2019-04-07T10:42:08.848Z,14.68
2019-04-07T10:45:12.435Z,14.65
2019-04-07T10:47:59.263Z,13.98
2019-04-07T10:50:59.027Z,13.62
2019-04-07T10:53:44.830Z,11.60
2019-04-07T10:56:32.304Z,13.38
2019-04-07T10:59:21.012Z,11.90
2019-04-07T11:02:13.502Z,12.43
2019-04-07T11:05:08.505Z,12.60
2019-04-07T11:07:55.812Z,15.20
2019-04-07T11:10:46.477Z,13.05
2019-04-07T11:13:27.702Z,14.00
2019-04-07T11:16:19.035Z,14.15
2019-04-07T11:19:17.922Z,14.13
2019-04-07T11:22:01.238Z,14.60
2019-04-07T11:24:59.184Z,15.35
2019-04-07T11:27:37.626Z,13.35
2019-04-07T11:30:13.520Z,11.75
2019-04-07T11:32:52.137Z,13.13
2019-04-07T11:35:30.813Z,13.35
2019-04-07T11:38:16.822Z,12.47
2019-04-07T11:41:08.815Z,12.63
2019-04-07T11:43:57.503Z,12.60
2019-04-07T11:46:48.320Z,13.20
2019-04-07T11:49:24.601Z,14.58
2019-04-07T11:52:12.546Z,11.97
2019-04-07T11:55:07.445Z,11.35
2019-04-07T11:58:02.921Z,13.95
2019-04-07T12:00:42.985Z,13.38
2019-04-07T12:03:31.013Z,14.38
2019-04-07T12:06:19.097Z,14.20
2019-04-07T12:09:16.282Z,11.40
2019-04-07T12:12:12.580Z,11.53
2019-04-07T12:14:51.471Z,13.13
2019-04-07T12:17:55.610Z,12.00
2019-04-07T12:20:54.062Z,12.35
2019-04-07T12:23:34.523Z,11.03
2019-04-07T12:26:36.831Z,13.18
2019-04-07T12:29:27.101Z,13.90
2019-04-07T12:32:14.918Z,11.25
2019-04-07T12:35:09.803Z,14.20
2019-04-07T12:37:59.557Z,11.60
2019-04-07T12:41:45.189Z,10.95
2019-04-07T12:44:30.319Z,12.28
2019-04-07T12:47:30.819Z,12.05
2019-04-07T12:50:46.636Z,10.78
2019-04-07T12:53:46.168Z,12.03
2019-04-07T12:56:46.717Z,10.50
2019-04-07T12:59:41.141Z,11.53
2019-04-07T13:02:22.839Z,10.40
2019-04-07T13:05:24.190Z,11.48
2019-04-07T13:08:23.999Z,11.63
2019-04-07T13:11:08.895Z,11.05
2019-04-07T13:14:09.875Z,10.03
2019-04-07T13:16:50.498Z,14.38
2019-04-07T13:19:49.951Z,12.13
2019-04-07T13:22:53.115Z,10.43
2019-04-07T13:25:38.597Z,11.73
2019-04-07T13:28:12.035Z,13.05
2019-04-07T13:31:01.696Z,14.47
2019-04-07T13:33:39.963Z,12.70
2019-04-07T13:36:25.220Z,11.35
2019-04-07T13:39:14.033Z,11.38
2019-04-07T13:42:03.949Z,11.97
2019-04-07T13:44:51.533Z,10.78
2019-04-07T13:47:44.653Z,10.90
2019-04-07T13:50:19.911Z,12.40
2019-04-07T13:52:59.101Z,11.12
2019-04-07T13:55:53.618Z,11.90
2019-04-07T13:58:36.584Z,9.80
2019-04-07T14:01:20.872Z,14.05
2019-04-07T14:04:13.622Z,12.25
2019-04-07T14:06:58.840Z,11.80
2019-04-07T14:09:57.147Z,11.88
2019-04-07T14:12:37.851Z,11.65
2019-04-07T14:15:26.966Z,10.35
2019-04-07T14:18:24.485Z,9.98
2019-04-07T14:25:27.939Z,12.93
2019-04-07T14:32:26.262Z,10.88
2019-04-07T14:35:19.412Z,10.82
2019-04-07T14:41:36.755Z,10.30
2019-04-07T14:44:40.078Z,10.88
2019-04-07T14:47:32.428Z,10.70
2019-04-07T14:50:11.893Z,11.08
2019-04-07T14:52:57.850Z,10.15
2019-04-07T14:55:48.870Z,11.45
2019-04-07T14:58:45.375Z,11.40
2019-04-07T15:01:53.762Z,10.65
2019-04-07T15:04:40.667Z,10.20
2019-04-07T15:07:32.780Z,10.90
2019-04-07T15:10:27.521Z,9.58
2019-04-07T15:13:06.613Z,12.63
2019-04-07T15:15:36.851Z,11.15
2019-04-07T15:18:07.225Z,10.78
2019-04-07T15:20:37.839Z,9.70
2019-04-07T15:23:07.575Z,9.35
2019-04-07T15:25:40.645Z,10.65
2019-04-07T15:28:08.898Z,10.90
2019-04-07T15:30:39.504Z,11.08
2019-04-07T15:33:11.996Z,10.78
2019-04-07T15:35:45.088Z,9.38
2019-04-07T15:38:12.566Z,9.88
2019-04-07T15:40:42.770Z,9.03
2019-04-07T15:43:14.010Z,10.08
2019-04-07T15:45:46.969Z,9.45
2019-04-07T15:48:27.118Z,10.78
2019-04-07T16:03:52.665Z,10.28
2019-04-07T16:06:34.459Z,8.25
2019-04-07T16:09:27.299Z,9.10
2019-04-07T16:11:43.459Z,9.45
2019-04-07T16:14:15.069Z,10.30
2019-04-07T16:16:47.963Z,9.55
2019-04-07T16:19:24.899Z,10.48
2019-04-07T16:22:01.441Z,8.80
2019-04-07T16:24:35.523Z,9.65
2019-04-07T16:30:23.451Z,10.95
2019-04-07T16:33:01.971Z,11.18
2019-04-07T16:35:29.879Z,9.98
2019-04-07T16:38:02.728Z,9.85
2019-04-07T16:40:33.960Z,9.85
2019-04-07T16:43:10.945Z,10.00
2019-04-07T16:45:36.752Z,9.98
2019-04-07T16:48:07.697Z,9.43
2019-04-07T16:50:38.812Z,10.55
2019-04-07T16:53:09.202Z,10.08
2019-04-07T16:55:47.859Z,10.82
2019-04-07T16:58:15.889Z,9.40
2019-04-07T17:00:45.519Z,11.68
2019-04-07T17:03:15.511Z,10.78
2019-04-07T17:08:18.580Z,9.43
2019-04-07T17:13:56.935Z,9.80
2019-04-07T17:16:27.983Z,10.82
2019-04-07T17:18:58.775Z,9.93
2019-04-07T17:21:30.457Z,11.40
2019-04-07T17:23:59.862Z,11.33
2019-04-07T17:26:29.630Z,12.23
2019-04-07T17:28:59.653Z,11.93
2019-04-07T17:34:03.932Z,10.95
2019-04-07T17:36:32.424Z,10.95
2019-04-07T17:39:20.581Z,13.32
2019-04-07T17:41:50.919Z,10.98
2019-04-07T17:44:58.131Z,13.60
2019-04-07T17:47:47.391Z,11.20
2019-04-07T17:50:36.840Z,10.70
2019-04-07T17:53:25.309Z,11.38
2019-04-07T17:56:20.183Z,11.45
2019-04-07T17:59:28.235Z,11.03
2019-04-07T18:02:31.413Z,11.73
2019-04-07T18:05:10.871Z,11.97
2019-04-07T18:10:37.024Z,11.15
2019-04-07T18:13:26.001Z,10.53
2019-04-07T18:16:13.930Z,11.90
2019-04-07T18:19:04.506Z,12.18
2019-04-07T18:21:53.559Z,14.70
2019-04-07T18:24:31.793Z,12.03
2019-04-07T18:27:30.684Z,12.23
2019-04-07T18:30:40.798Z,13.22
2019-04-07T18:34:04.532Z,11.70
2019-04-07T18:37:09.716Z,11.93
2019-04-07T18:40:10.891Z,12.45
2019-04-07T18:42:57.703Z,11.63
2019-04-07T18:45:48.336Z,10.58
2019-04-07T18:51:13.864Z,12.10
2019-04-07T18:54:04.036Z,12.18
2019-04-07T18:56:47.445Z,12.15
2019-04-07T18:59:39.904Z,11.78
2019-04-07T19:02:36.389Z,12.43
2019-04-07T19:05:25.130Z,13.50
2019-04-07T19:08:25.452Z,13.75
2019-04-07T19:11:17.253Z,13.95
2019-04-07T19:14:24.603Z,18.40
2019-04-07T19:16:52.393Z,17.90
2019-04-07T19:19:58.437Z,19.00
2019-04-07T19:22:41.457Z,15.80
2019-04-07T19:25:41.954Z,15.88
2019-04-07T19:28:28.365Z,16.82
2019-04-07T19:31:19.674Z,13.78
2019-04-07T19:34:20.523Z,15.83
2019-04-07T19:37:17.959Z,14.30
2019-04-07T19:40:02.855Z,14.63
2019-04-07T19:42:58.573Z,13.65
2019-04-07T19:45:46.942Z,12.80
2019-04-07T19:48:31.861Z,14.40
2019-04-07T19:51:19.748Z,12.25
2019-04-07T19:54:13.531Z,14.00
2019-04-07T19:57:01.350Z,12.98
2019-04-07T19:59:50.908Z,13.43
2019-04-07T20:02:51.876Z,14.00
2019-04-07T20:05:53.006Z,13.85
2019-04-07T20:08:38.404Z,11.55
2019-04-07T20:11:35.775Z,13.80
2019-04-07T20:14:46.009Z,13.20
2019-04-07T20:17:29.308Z,16.15
2019-04-07T20:20:12.263Z,13.10
2019-04-07T20:23:16.764Z,14.75
2019-04-07T20:26:04.562Z,13.88
2019-04-07T20:28:56.591Z,14.60
2019-04-07T20:31:45.047Z,12.25
2019-04-07T20:34:42.829Z,12.85
2019-04-07T20:37:25.313Z,13.22
2019-04-07T20:40:22.106Z,12.40
2019-04-07T20:43:02.599Z,12.82
2019-04-07T20:45:51.822Z,13.62
2019-04-07T20:48:43.207Z,13.03
2019-04-07T20:51:22.061Z,11.28
2019-04-07T20:54:09.733Z,11.90
2019-04-07T20:57:18.410Z,12.75
2019-04-07T21:00:17.441Z,13.93
2019-04-07T21:03:19.470Z,12.28
2019-04-07T21:06:02.883Z,12.93
2019-04-07T21:08:54.300Z,15.38
2019-04-07T21:11:42.882Z,14.30
2019-04-07T21:14:29.764Z,12.58
2019-04-07T21:17:08.516Z,11.95
2019-04-07T21:19:56.406Z,13.48
2019-04-07T21:22:57.001Z,12.98
2019-04-07T21:25:45.266Z,12.85
2019-04-07T21:28:28.851Z,13.65
2019-04-07T21:31:07.247Z,12.05
2019-04-07T21:33:56.605Z,13.18
2019-04-07T21:36:48.470Z,13.25
2019-04-07T21:39:45.126Z,12.35
2019-04-07T21:42:45.812Z,12.80
2019-04-07T21:45:37.581Z,12.28
2019-04-07T21:48:18.613Z,14.35
2019-04-07T21:51:02.673Z,14.73
2019-04-07T21:53:41.003Z,14.68
2019-04-07T21:56:35.726Z,13.25
2019-04-07T21:59:29.259Z,15.10
2019-04-07T22:02:23.709Z,13.20
2019-04-07T22:05:04.837Z,14.47
2019-04-07T22:07:44.000Z,11.73
2019-04-07T22:10:18.729Z,13.53
2019-04-07T22:12:46.014Z,14.20
2019-04-07T22:15:16.028Z,12.20
2019-04-07T22:17:45.798Z,13.83
2019-04-07T22:20:18.848Z,12.35
2019-04-07T22:22:51.299Z,13.10
2019-04-07T22:25:30.530Z,14.80
2019-04-07T22:28:00.480Z,14.70
2019-04-07T22:30:33.971Z,14.40
2019-04-07T22:33:02.787Z,13.83
2019-04-07T22:35:34.195Z,15.32
2019-04-07T22:38:03.437Z,14.33
2019-04-07T22:40:36.357Z,15.05
2019-04-07T22:43:04.417Z,12.45
2019-04-07T22:45:35.021Z,14.38
2019-04-07T22:48:06.981Z,15.15
2019-04-07T22:50:38.226Z,16.10
2019-04-07T22:53:07.378Z,14.60
2019-04-07T22:55:37.586Z,13.95
2019-04-07T22:58:07.544Z,13.68
2019-04-07T23:00:37.196Z,15.25
2019-04-07T23:03:08.469Z,12.85
2019-04-07T23:05:38.172Z,17.95
2019-04-07T23:08:08.297Z,16.27
2019-04-07T23:13:07.752Z,15.45
2019-04-07T23:15:43.933Z,16.40
2019-04-07T23:18:08.908Z,15.08
2019-04-07T23:20:38.380Z,16.48
2019-04-07T23:23:11.036Z,14.23
2019-04-07T23:25:40.521Z,15.15
2019-04-07T23:28:10.302Z,15.32
2019-04-07T23:30:40.702Z,16.15
2019-04-07T23:33:10.432Z,15.35
2019-04-07T23:35:39.992Z,15.70
2019-04-07T23:38:09.213Z,17.12
2019-04-07T23:40:38.599Z,15.05
2019-04-07T23:43:07.724Z,16.00
2019-04-07T23:45:37.809Z,15.90
2019-04-07T23:50:36.488Z,17.07
2019-04-07T23:53:42.877Z,15.37
2019-04-07T23:56:12.617Z,15.60
2019-04-07T23:58:41.922Z,16.50
